Vanlue, OH (45890)

6:36 PM EST on February 06, 2016 (GMT -0500)
Carey High School | | Change Station
CLOSE
Current Station
Personal Weather Station
Location: Carey, OH
Elevation: 823 ft
Nearby Weather Stations

Elev 823 ft 40.95 °N, 83.38 °W | Updated 5 seconds ago

Mostly Cloudy
Mostly Cloudy
35.2 °F
Feels Like 32 °F
N
3.4
Wind Variable Wind from SW
Gusts 4.9 mph

Today
High -- | Low -- °F
--% Chance of Precip.
Yesterday
High -- | Low -- °F
Precip. -- in
Pressure 30.22 in
Visibility 10.0 miles
Clouds Clear
Windchill 32 °F
Dew Point 22 °F
Humidity 58%
Rainfall 0.00 in
Snow Depth Not available.
7:39 AM 5:56 PM
Waning Crescent, 4% visible
METAR KFDY 062253Z AUTO 22007KT 10SM CLR 01/M06 A3020 RMK AO2 SLP234 T00111056 TSNO
Pressure 30.22 in
Visibility 10.0 miles
Clouds Clear
Windchill 32 °F
Dew Point 22 °F
Humidity 58%
Rainfall 0.00 in
Snow Depth Not available.
7:39 AM 5:56 PM
Waning Crescent, 4% visible
METAR KFDY 062253Z AUTO 22007KT 10SM CLR 01/M06 A3020 RMK AO2 SLP234 T00111056 TSNO

10-Day Weather Forecast

Almanac

Astronomy

Feb. 06, 2016 Rise Set
Actual Time
Civil Twilight
Nautical Twilight
Astronomical Twilight
Moon
Length of Visible Light
Length of Day
Tomorrow will be .
, % of the Moon is Illuminated

Today's Extremes

State Highs State Lows

Community

WunderPhotos

Upload Photos

1,891,098 photos uploaded!

WunderBlog® & News

Nearby

Air Quality

  Air Quality AQ Index Pollutant
Not available.

Snow Depth

Station Depth Elevation

Earthquake Activity

City Distance Mag. Time & Date
Minimum magnitude displayed is 2.5.

Coastal Water Temperatures

Place Temperature

Stations

Nearby Weather Stations

Station Location Temp. Windchill Dew Point Humidity Wind Precip. Elev Updated Type
                   

Watches & Warnings

There are currently no watches in effect.